KMTP/MTP METAR and TAF weather

Enter ICAO airport designator
Station Type Date Time Source
KMTP METAR 2021/09/16 09:54 UTC NOAA

KMTP 160954Z AUTO 29005KT 22/22 A3012 RMK AO1 SLP199 P0023 T02220217 $


Station Type Date Time Source
KMTP Decoded METAR 2021/09/16 09:54 UTC NOAA

MONTAUK AIRPORT, NY, United States (KMTP) 41-04N 071-55W 2M
Sep 16, 2021 - 05:54 AM EDT / 2021.09.16 0954 UTC
Wind: from the WNW (290 degrees) at 6 MPH (5 KT):0
Precipitation last hour: 0.23 inches
Temperature: 72.0 F (22.2 C)
Dew Point: 71.1 F (21.7 C)
Relative Humidity: 96%
Pressure (altimeter): 30.12 in. Hg (1019 hPa)
ob: KMTP 160954Z AUTO 29005KT 22/22 A3012 RMK AO1 SLP199 P0023 T02220217
cycle: 10

Station Type Date Time Source
KMTP TAF UTC NOAA

Error!

Example: see airport list